Time;durP1;ratioP1;P1;durP2;ratioP2;P2;SDS_P1;SDS_P2;PMS_P1;PMS_P2;Temp;Humidity;BMP_temperature;BMP_pressure;BME280_temperature;BME280_humidity;BME280_pressure;Samples;Min_cycle;Max_cycle;Signal;HPM_P1;HPM_P2
2023/01/17 00:02:23;;;;;;;0.90;0.90;;;4.50;99.90;;;;;;5087970;28;20153;-40
2023/01/17 00:10:19;;;;;;;1.05;0.82;;;4.60;99.90;;;;;;5085603;28;20035;-39
2023/01/17 00:12:47;;;;;;;1.48;0.90;;;4.60;99.90;;;;;;5087756;28;20111;-40
2023/01/17 00:15:13;;;;;;;3.30;0.85;;;4.70;99.90;;;;;;5087262;28;20020;-39
2023/01/17 00:17:38;;;;;;;0.80;0.80;;;4.70;99.90;;;;;;5082566;28;20419;-39
2023/01/17 01:35:11;;;;;;;3.47;2.55;;;4.40;99.90;;;;;;5090124;28;20089;-42
2023/01/17 01:37:37;;;;;;;5.22;2.80;;;4.40;99.90;;;;;;5090741;28;20028;-42
2023/01/17 01:40:03;;;;;;;5.00;2.88;;;4.40;99.90;;;;;;5090901;28;20428;-41
2023/01/17 01:42:28;;;;;;;4.20;3.00;;;4.40;99.90;;;;;;5090392;28;20451;-42
2023/01/17 01:44:54;;;;;;;4.40;2.97;;;4.50;99.90;;;;;;5090150;28;20024;-42
2023/01/17 01:47:25;;;;;;;4.05;3.00;;;4.50;99.90;;;;;;5090841;28;20062;-41
2023/01/17 01:49:50;;;;;;;5.20;3.63;;;4.50;99.90;;;;;;5090613;28;20028;-42
2023/01/17 01:52:19;;;;;;;6.47;3.67;;;4.50;99.90;;;;;;5072652;28;20027;-46
2023/01/17 01:55:14;;;;;;;4.72;3.70;;;4.50;99.90;;;;;;5090395;28;20047;-41
2023/01/17 01:57:42;;;;;;;3.47;3.17;;;4.60;99.90;;;;;;5087803;28;20028;-41
2023/01/17 02:00:32;;;;;;;4.20;3.30;;;4.70;99.90;;;;;;5090594;28;20028;-42
2023/01/17 02:03:03;;;;;;;3.97;3.22;;;4.70;99.90;;;;;;5087476;28;20023;-42
2023/01/17 02:05:29;;;;;;;5.07;3.28;;;4.60;99.90;;;;;;5089915;28;20032;-40
2023/01/17 02:08:02;;;;;;;4.60;3.10;;;4.50;99.90;;;;;;5090240;28;20366;-43
2023/01/17 02:10:32;;;;;;;4.55;3.25;;;4.50;99.90;;;;;;5090056;28;20053;-41
2023/01/17 02:12:58;;;;;;;3.73;2.40;;;4.50;99.90;;;;;;5087243;28;20379;-44
2023/01/17 02:15:39;;;;;;;4.13;3.03;;;4.60;99.90;;;;;;5089906;28;20058;-43
2023/01/17 02:18:32;;;;;;;4.35;2.95;;;4.60;99.90;;;;;;5088591;28;20024;-41
2023/01/17 02:21:18;;;;;;;4.70;2.60;;;4.60;99.90;;;;;;5087328;28;20073;-41
2023/01/17 02:23:56;;;;;;;4.28;3.10;;;4.60;99.90;;;;;;5088444;28;20430;-41
2023/01/17 02:26:46;;;;;;;3.47;2.72;;;4.60;99.90;;;;;;5087669;28;20466;-41
2023/01/17 02:29:30;;;;;;;3.75;2.65;;;4.60;99.90;;;;;;5089452;28;20024;-41
2023/01/17 02:31:58;;;;;;;3.65;2.75;;;4.60;99.90;;;;;;5087239;28;20028;-41
2023/01/17 02:34:26;;;;;;;3.30;2.50;;;4.60;99.90;;;;;;5089740;28;20031;-41
2023/01/17 02:37:03;;;;;;;4.90;3.33;;;4.60;99.90;;;;;;5089567;28;20347;-41
2023/01/17 02:40:09;;;;;;;2.72;2.53;;;4.60;99.90;;;;;;5087184;28;20546;-40
2023/01/17 02:42:41;;;;;;;2.78;2.47;;;4.70;99.90;;;;;;5088815;28;20031;-41
2023/01/17 02:45:07;;;;;;;3.70;3.15;;;4.60;99.90;;;;;;5089315;28;20072;-40
2023/01/17 02:47:33;;;;;;;3.88;3.30;;;4.60;99.90;;;;;;5089332;28;20232;-40
2023/01/17 02:50:30;;;;;;;2.70;2.35;;;4.70;99.90;;;;;;5089597;28;20028;-41
2023/01/17 02:53:02;;;;;;;3.30;3.00;;;4.70;99.90;;;;;;5089084;28;20034;-42
2023/01/17 02:55:47;;;;;;;4.35;3.33;;;4.70;99.90;;;;;;5088973;28;20534;-42
2023/01/17 02:58:21;;;;;;;3.92;3.33;;;4.60;99.90;;;;;;5085919;28;20117;-40
2023/01/17 03:01:10;;;;;;;4.00;3.60;;;4.60;99.90;;;;;;5088810;28;20012;-41
2023/01/17 03:04:07;;;;;;;4.00;3.10;;;4.60;99.90;;;;;;5086181;28;20012;-41
2023/01/17 03:07:02;;;;;;;4.47;3.60;;;4.70;99.90;;;;;;5088336;28;20024;-40
2023/01/17 03:09:29;;;;;;;7.07;4.25;;;4.60;99.90;;;;;;5085752;28;20024;-40
2023/01/17 03:11:57;;;;;;;6.15;4.50;;;4.60;99.90;;;;;;5088676;28;20024;-41
2023/01/17 03:14:22;;;;;;;6.40;5.05;;;4.60;99.90;;;;;;5089052;28;20016;-40
2023/01/17 03:16:48;;;;;;;6.35;5.05;;;4.50;99.90;;;;;;5088515;28;20073;-40
2023/01/17 03:19:14;;;;;;;5.90;4.75;;;4.50;99.90;;;;;;5088757;28;20024;-40
2023/01/17 03:21:40;;;;;;;6.40;4.80;;;4.40;99.90;;;;;;5088835;28;20099;-40
2023/01/17 03:24:06;;;;;;;5.78;4.03;;;4.40;99.90;;;;;;5088739;28;20094;-39
2023/01/17 03:26:31;;;;;;;5.70;4.40;;;4.40;99.90;;;;;;5084908;28;20019;-39
2023/01/17 03:28:57;;;;;;;5.40;4.20;;;4.30;99.90;;;;;;5087350;28;20047;-39
2023/01/17 03:31:23;;;;;;;5.47;4.53;;;4.30;99.90;;;;;;5087561;28;20482;-39
2023/01/17 03:33:48;;;;;;;5.43;4.57;;;4.30;99.90;;;;;;5089053;28;20016;-41
2023/01/17 03:36:14;;;;;;;6.68;5.15;;;4.20;99.90;;;;;;5088035;28;20031;-41
2023/01/17 03:38:39;;;;;;;7.50;4.25;;;4.10;99.90;;;;;;5087169;28;20016;-40
2023/01/17 03:41:05;;;;;;;5.78;4.25;;;4.10;99.90;;;;;;5088403;28;20084;-41
2023/01/17 03:43:31;;;;;;;6.63;4.47;;;4.10;99.90;;;;;;5088177;28;20032;-40
2023/01/17 03:46:16;;;;;;;5.50;4.20;;;4.10;99.90;;;;;;5088126;28;20016;-42
2023/01/17 03:48:41;;;;;;;5.72;4.55;;;4.10;99.90;;;;;;5086402;28;20061;-41
2023/01/17 03:51:07;;;;;;;5.70;4.35;;;4.10;99.90;;;;;;5088884;28;20020;-40
2023/01/17 03:53:32;;;;;;;5.30;4.25;;;4.10;99.90;;;;;;5086865;28;20509;-40
2023/01/17 03:55:58;;;;;;;5.95;4.93;;;4.10;99.90;;;;;;5086621;28;20020;-40
2023/01/17 03:58:23;;;;;;;6.47;4.50;;;4.10;99.90;;;;;;5086021;28;20176;-40
2023/01/17 04:00:49;;;;;;;7.13;5.10;;;4.10;99.90;;;;;;5088260;28;20068;-40
2023/01/17 04:03:14;;;;;;;6.03;4.57;;;4.00;99.90;;;;;;5088263;28;20098;-40
2023/01/17 04:05:40;;;;;;;5.43;4.35;;;4.00;99.90;;;;;;5086346;28;20104;-40
2023/01/17 04:08:06;;;;;;;6.80;4.72;;;4.00;99.90;;;;;;5088313;28;20047;-41
2023/01/17 04:10:32;;;;;;;4.88;4.22;;;4.00;99.90;;;;;;5087750;28;20109;-41
2023/01/17 04:12:57;;;;;;;6.13;4.30;;;4.00;99.90;;;;;;5087521;28;20187;-41
2023/01/17 04:15:23;;;;;;;4.97;4.47;;;4.00;99.90;;;;;;5088033;28;20046;-41
2023/01/17 04:17:49;;;;;;;5.43;4.13;;;4.10;99.90;;;;;;5088260;28;20026;-41
2023/01/17 04:20:25;;;;;;;5.40;4.10;;;4.00;99.90;;;;;;5087479;28;20032;-41
2023/01/17 04:22:51;;;;;;;5.82;4.30;;;4.00;99.90;;;;;;5088173;28;20098;-41
2023/01/17 04:25:16;;;;;;;5.93;4.63;;;4.00;99.90;;;;;;5087536;28;20020;-40
2023/01/17 04:27:42;;;;;;;6.22;4.55;;;3.90;99.90;;;;;;5086342;28;20028;-40
2023/01/17 04:30:08;;;;;;;5.43;4.55;;;4.00;99.90;;;;;;5087601;28;20024;-40
2023/01/17 04:32:34;;;;;;;5.70;4.07;;;4.00;99.90;;;;;;5088249;28;20490;-40
2023/01/17 04:34:59;;;;;;;7.10;4.50;;;4.00;99.90;;;;;;5087172;28;20063;-40
2023/01/17 04:37:25;;;;;;;6.38;4.90;;;4.00;99.90;;;;;;5087582;28;20036;-40
2023/01/17 04:39:51;;;;;;;6.22;5.25;;;4.00;99.90;;;;;;5087713;28;20020;-40
2023/01/17 04:42:17;;;;;;;7.20;5.25;;;4.00;99.90;;;;;;5085167;28;20078;-41
2023/01/17 04:44:42;;;;;;;5.95;5.03;;;4.00;99.90;;;;;;5086837;28;20479;-40
2023/01/17 04:47:08;;;;;;;6.70;4.82;;;4.00;99.90;;;;;;5087195;28;20034;-41
2023/01/17 04:49:33;;;;;;;5.85;4.63;;;4.00;99.90;;;;;;5087333;28;20035;-41
2023/01/17 04:51:59;;;;;;;8.52;5.50;;;4.00;99.90;;;;;;5087913;28;20062;-40
2023/01/17 04:54:24;;;;;;;7.30;5.18;;;4.00;99.90;;;;;;5086995;28;20055;-40
2023/01/17 04:56:50;;;;;;;7.78;5.50;;;4.00;99.90;;;;;;5085058;28;20025;-40
2023/01/17 04:59:15;;;;;;;7.50;5.63;;;3.90;99.90;;;;;;5087740;28;20026;-40
2023/01/17 05:01:41;;;;;;;7.45;5.32;;;3.90;99.90;;;;;;5085763;28;20024;-40
2023/01/17 05:04:07;;;;;;;6.43;5.00;;;3.80;99.90;;;;;;5087291;28;20108;-40
2023/01/17 05:06:32;;;;;;;9.73;5.50;;;3.90;99.90;;;;;;5086774;28;20024;-41
2023/01/17 05:08:58;;;;;;;5.82;4.70;;;3.90;99.90;;;;;;5086184;28;20024;-40
2023/01/17 05:11:23;;;;;;;7.20;4.30;;;3.90;99.90;;;;;;5087398;28;20277;-40
2023/01/17 05:13:49;;;;;;;5.78;4.40;;;3.90;99.90;;;;;;5087483;28;20048;-40
2023/01/17 05:16:18;;;;;;;5.30;4.00;;;3.90;99.90;;;;;;5087139;28;20390;-40
2023/01/17 05:18:43;;;;;;;5.28;3.88;;;4.00;99.90;;;;;;5087475;28;20027;-40
2023/01/17 05:21:09;;;;;;;6.20;4.35;;;4.00;99.90;;;;;;5087445;28;20012;-40
2023/01/17 05:23:34;;;;;;;5.40;4.20;;;4.10;99.90;;;;;;5087088;28;20486;-40
2023/01/17 05:26:00;;;;;;;4.75;3.70;;;4.10;99.90;;;;;;5085248;28;20024;-40
2023/01/17 05:28:25;;;;;;;4.38;3.97;;;4.10;99.90;;;;;;5086638;28;20035;-40
2023/01/17 05:30:51;;;;;;;4.47;3.80;;;4.10;99.90;;;;;;5085819;28;20039;-40
2023/01/17 05:33:16;;;;;;;4.88;3.92;;;4.20;99.90;;;;;;5090876;28;20490;-40
2023/01/17 05:35:42;;;;;;;4.90;3.70;;;4.10;99.90;;;;;;5089304;28;20081;-40
2023/01/17 05:38:07;;;;;;;4.43;3.38;;;4.10;99.90;;;;;;5090784;28;20020;-40
2023/01/17 05:40:33;;;;;;;4.65;3.70;;;4.00;99.90;;;;;;5090861;28;20020;-40
2023/01/17 05:43:00;;;;;;;4.55;3.72;;;4.00;99.90;;;;;;5088839;28;20395;-40
2023/01/17 05:45:28;;;;;;;5.32;4.20;;;4.10;99.90;;;;;;5090015;28;20013;-40
2023/01/17 05:47:55;;;;;;;4.95;4.20;;;4.10;99.90;;;;;;5089542;28;20058;-40
2023/01/17 05:50:23;;;;;;;5.90;4.65;;;4.10;99.90;;;;;;5095470;28;20291;-40
2023/01/17 05:52:57;;;;;;;5.32;3.97;;;4.10;99.90;;;;;;5096562;28;20020;-40
2023/01/17 05:55:24;;;;;;;5.75;4.80;;;4.10;99.90;;;;;;5099416;28;20050;-40
2023/01/17 05:57:49;;;;;;;5.88;4.43;;;4.10;99.90;;;;;;5091874;27;20019;-40
2023/01/17 06:00:16;;;;;;;6.47;4.07;;;4.10;99.90;;;;;;5090841;28;20016;-40
2023/01/17 06:02:42;;;;;;;6.70;4.80;;;4.00;99.90;;;;;;5089530;28;20421;-40
2023/01/17 06:05:08;;;;;;;6.60;4.28;;;4.00;99.90;;;;;;5090193;28;20031;-40
2023/01/17 06:07:34;;;;;;;5.45;4.30;;;4.00;99.90;;;;;;5087587;28;20566;-40
2023/01/17 06:09:59;;;;;;;4.55;3.55;;;4.00;99.90;;;;;;5085650;28;20107;-40
2023/01/17 06:12:25;;;;;;;4.45;3.67;;;3.90;99.90;;;;;;5089603;28;20024;-40
2023/01/17 06:14:51;;;;;;;4.38;3.40;;;3.90;99.90;;;;;;5088242;28;20062;-40
2023/01/17 06:17:16;;;;;;;4.40;3.50;;;3.80;99.90;;;;;;5087367;28;20115;-40
2023/01/17 06:19:42;;;;;;;4.18;3.13;;;3.80;99.90;;;;;;5090245;28;20020;-41
2023/01/17 06:22:07;;;;;;;4.80;2.97;;;3.70;99.90;;;;;;5086234;28;20028;-54
2023/01/17 06:24:33;;;;;;;4.43;2.67;;;3.70;99.90;;;;;;5086620;28;20031;-51
2023/01/17 06:26:59;;;;;;;2.80;2.38;;;3.60;99.90;;;;;;5090082;28;20077;-50
2023/01/17 06:29:24;;;;;;;3.42;2.55;;;3.60;99.90;;;;;;5088180;28;20086;-51
2023/01/17 06:31:50;;;;;;;3.78;2.65;;;3.50;99.90;;;;;;5087175;28;20032;-50
2023/01/17 06:34:16;;;;;;;4.63;3.05;;;3.50;99.90;;;;;;5085280;28;20051;-51
2023/01/17 06:36:41;;;;;;;6.88;2.80;;;3.40;99.90;;;;;;5089482;28;20055;-52
2023/01/17 06:39:08;;;;;;;5.25;3.38;;;3.50;99.90;;;;;;5089739;28;20327;-49
2023/01/17 06:41:34;;;;;;;4.93;2.63;;;3.50;99.90;;;;;;5088249;28;20027;-48
2023/01/17 06:44:00;;;;;;;3.38;2.53;;;3.50;99.90;;;;;;5089041;28;20379;-48
2023/01/17 06:46:25;;;;;;;2.92;2.63;;;3.60;99.90;;;;;;5087388;28;20180;-48
2023/01/17 06:48:51;;;;;;;4.55;2.70;;;3.60;99.90;;;;;;5088988;28;20016;-50
2023/01/17 06:51:17;;;;;;;4.38;2.53;;;3.60;99.90;;;;;;5088003;28;20424;-51
2023/01/17 06:53:42;;;;;;;2.95;2.38;;;3.60;99.90;;;;;;5089127;28;20076;-48
2023/01/17 06:56:09;;;;;;;2.50;1.90;;;3.60;99.90;;;;;;5088861;28;20054;-49
2023/01/17 06:58:35;;;;;;;2.17;1.40;;;3.60;99.90;;;;;;5085353;28;20035;-48
2023/01/17 07:01:08;;;;;;;2.92;1.23;;;3.50;99.90;;;;;;5088744;28;20090;-50
2023/01/17 07:03:34;;;;;;;1.70;1.08;;;3.50;99.90;;;;;;5088351;28;20023;-48
2023/01/17 07:06:03;;;;;;;2.17;1.27;;;3.40;99.90;;;;;;5088819;28;20384;-50
2023/01/17 07:08:29;;;;;;;0.87;0.80;;;3.20;99.90;;;;;;5089832;28;20051;-51
2023/01/17 07:11:01;;;;;;;4.97;1.50;;;3.10;99.90;;;;;;5089494;28;20020;-48
2023/01/17 07:13:27;;;;;;;3.47;1.55;;;3.10;99.90;;;;;;5089368;28;20101;-51
2023/01/17 07:15:53;;;;;;;3.38;1.60;;;3.10;99.90;;;;;;5089125;28;20114;-51
2023/01/17 07:18:22;;;;;;;3.13;1.40;;;3.00;99.90;;;;;;5086248;28;20050;-48
2023/01/17 07:20:49;;;;;;;1.45;1.25;;;3.00;99.90;;;;;;5089653;28;20047;-49
2023/01/17 07:23:14;;;;;;;1.23;0.80;;;3.10;99.90;;;;;;5088728;28;20047;-49
2023/01/17 07:25:40;;;;;;;5.13;1.00;;;3.10;99.90;;;;;;5089258;28;20051;-51
2023/01/17 07:28:05;;;;;;;1.05;0.85;;;3.00;99.90;;;;;;5089734;28;20437;-49
2023/01/17 07:30:31;;;;;;;1.85;1.23;;;2.90;99.90;;;;;;5089390;28;20513;-39
2023/01/17 07:32:57;;;;;;;2.70;1.35;;;2.90;99.90;;;;;;5088561;28;20494;-52
2023/01/17 07:35:25;;;;;;;2.33;0.95;;;2.80;99.90;;;;;;5088734;28;20012;-40
2023/01/17 07:37:51;;;;;;;1.15;0.95;;;2.70;99.90;;;;;;5087223;28;20020;-39
2023/01/17 07:40:19;;;;;;;3.38;1.30;;;2.70;99.90;;;;;;5087293;28;20031;-51
2023/01/17 07:42:46;;;;;;;2.25;1.33;;;2.70;99.90;;;;;;5087223;28;20482;-53
2023/01/17 07:45:14;;;;;;;1.73;1.30;;;2.70;99.90;;;;;;5088214;28;20061;-52
2023/01/17 07:47:42;;;;;;;1.95;1.60;;;2.70;99.90;;;;;;5084418;28;20036;-52
2023/01/17 07:50:09;;;;;;;1.75;1.20;;;2.60;99.90;;;;;;5088504;28;20028;-40
2023/01/17 07:52:34;;;;;;;3.67;1.48;;;2.50;99.90;;;;;;5094820;28;20028;-52
2023/01/17 07:55:00;;;;;;;3.92;1.60;;;2.60;99.90;;;;;;5093404;28;20554;-40
2023/01/17 07:57:25;;;;;;;2.10;1.63;;;2.60;99.90;;;;;;5092505;28;20489;-40
2023/01/17 07:59:51;;;;;;;5.50;2.10;;;2.60;99.90;;;;;;5088207;28;20020;-40
2023/01/17 08:02:19;;;;;;;3.13;1.95;;;2.70;99.90;;;;;;5088007;28;20016;-40
2023/01/17 08:04:45;;;;;;;5.57;2.20;;;2.70;99.90;;;;;;5087075;28;20028;-51
2023/01/17 08:07:12;;;;;;;5.22;1.83;;;2.70;99.90;;;;;;5088212;28;20138;-52
2023/01/17 08:09:39;;;;;;;3.97;1.55;;;2.70;99.90;;;;;;5088152;28;20157;-53
2023/01/17 08:12:04;;;;;;;6.78;2.20;;;2.70;99.90;;;;;;5088214;28;20107;-53
2023/01/17 08:14:30;;;;;;;6.93;2.65;;;2.60;99.90;;;;;;5085676;28;20157;-51
2023/01/17 08:17:09;;;;;;;4.55;2.22;;;2.50;99.90;;;;;;5084021;28;20035;-52
2023/01/17 08:19:34;;;;;;;4.10;2.38;;;2.60;99.90;;;;;;5086489;28;20020;-51
2023/01/17 08:22:00;;;;;;;4.03;2.08;;;2.60;99.90;;;;;;5086586;28;20092;-52
2023/01/17 08:24:26;;;;;;;4.78;2.15;;;2.60;99.90;;;;;;5087041;28;20024;-51
2023/01/17 08:26:54;;;;;;;5.07;2.22;;;2.60;99.90;;;;;;5086278;28;20402;-49
2023/01/17 08:29:19;;;;;;;5.18;1.73;;;2.60;99.90;;;;;;5087348;28;20440;-52
2023/01/17 08:31:45;;;;;;;6.45;2.03;;;2.60;99.90;;;;;;5087746;28;20024;-53
2023/01/17 08:34:12;;;;;;;2.83;1.52;;;2.60;99.90;;;;;;5088091;28;20364;-51
2023/01/17 08:36:41;;;;;;;4.85;1.40;;;2.60;99.90;;;;;;5087764;28;20539;-51
2023/01/17 08:39:07;;;;;;;1.83;1.45;;;2.60;99.90;;;;;;5088250;28;20024;-53
2023/01/17 08:41:33;;;;;;;5.03;1.48;;;2.60;99.90;;;;;;5088342;28;20043;-50
2023/01/17 08:43:58;;;;;;;2.10;1.58;;;2.60;99.90;;;;;;5087925;28;20016;-51
2023/01/17 08:46:24;;;;;;;2.45;1.20;;;2.60;99.90;;;;;;5087709;28;20481;-53
2023/01/17 08:48:54;;;;;;;1.65;1.50;;;2.70;99.90;;;;;;5087860;28;20077;-52
2023/01/17 08:51:20;;;;;;;5.68;1.50;;;2.70;99.90;;;;;;5088338;28;20078;-55
2023/01/17 08:53:47;;;;;;;6.68;1.55;;;2.70;99.90;;;;;;5086678;28;20028;-52
2023/01/17 08:56:12;;;;;;;2.38;1.42;;;2.70;99.90;;;;;;5086290;28;20036;-40
2023/01/17 08:58:40;;;;;;;6.50;1.67;;;2.70;99.90;;;;;;5088279;28;20012;-40
2023/01/17 09:01:06;;;;;;;3.83;1.88;;;2.70;99.90;;;;;;5088584;28;20123;-40
2023/01/17 09:03:33;;;;;;;5.25;1.83;;;2.80;99.90;;;;;;5087447;28;20028;-40
2023/01/17 09:06:09;;;;;;;4.28;1.90;;;2.70;99.90;;;;;;5089318;28;20028;-40
2023/01/17 09:08:36;;;;;;;2.38;1.50;;;2.70;99.90;;;;;;5090843;28;20020;-40
2023/01/17 09:11:07;;;;;;;3.42;2.65;;;2.70;99.90;;;;;;5091884;28;20441;-39
2023/01/17 09:13:33;;;;;;;5.05;2.05;;;2.70;99.90;;;;;;5091842;28;20363;-39
2023/01/17 09:15:59;;;;;;;5.40;1.58;;;2.70;99.90;;;;;;5091592;28;20020;-50
2023/01/17 09:18:26;;;;;;;2.70;1.55;;;2.70;99.90;;;;;;5090845;28;20016;-53
2023/01/17 09:20:57;;;;;;;2.60;1.70;;;2.80;99.90;;;;;;5091740;28;20024;-53
2023/01/17 09:23:25;;;;;;;4.47;1.80;;;2.80;99.90;;;;;;5079054;28;20028;-54
2023/01/17 09:25:54;;;;;;;2.85;1.23;;;2.90;99.90;;;;;;5090199;28;20107;-50
2023/01/17 09:28:20;;;;;;;11.30;1.77;;;3.00;99.90;;;;;;5089579;28;20263;-50
2023/01/17 09:30:46;;;;;;;4.53;1.70;;;3.00;99.90;;;;;;5090481;28;20526;-51
2023/01/17 09:33:12;;;;;;;3.72;1.67;;;3.00;99.90;;;;;;5088938;28;20050;-54
2023/01/17 09:35:38;;;;;;;5.38;2.20;;;3.00;99.90;;;;;;5089477;28;20458;-53
2023/01/17 09:38:03;;;;;;;7.35;2.83;;;3.00;99.90;;;;;;5090359;28;20121;-53
2023/01/17 09:40:29;;;;;;;3.88;1.63;;;3.00;99.90;;;;;;5090482;28;20016;-52
2023/01/17 09:43:02;;;;;;;5.60;1.98;;;3.10;99.90;;;;;;5088900;28;20508;-51
2023/01/17 09:45:30;;;;;;;4.30;1.83;;;3.10;99.90;;;;;;5089737;28;20024;-54
2023/01/17 09:47:58;;;;;;;3.83;2.00;;;3.20;99.90;;;;;;5089039;28;20101;-52
2023/01/17 09:50:30;;;;;;;3.92;1.88;;;3.20;99.90;;;;;;5088665;28;20119;-52
2023/01/17 09:53:05;;;;;;;3.47;1.70;;;3.20;99.90;;;;;;5088645;28;20035;-53
2023/01/17 09:55:38;;;;;;;7.15;2.10;;;3.20;99.90;;;;;;5088227;28;20021;-52
2023/01/17 09:58:10;;;;;;;5.43;2.50;;;3.20;99.90;;;;;;5084797;28;20121;-52
2023/01/17 10:00:41;;;;;;;2.45;1.90;;;3.20;99.90;;;;;;5090300;28;20469;-54
2023/01/17 10:03:15;;;;;;;4.47;1.70;;;3.30;99.90;;;;;;5090115;28;20039;-54
2023/01/17 10:05:43;;;;;;;8.18;2.50;;;3.40;99.90;;;;;;5087741;28;20406;-52
2023/01/17 10:08:40;;;;;;;6.97;1.92;;;3.40;99.90;;;;;;5088151;28;20069;-52
2023/01/17 10:11:31;;;;;;;7.88;2.63;;;3.50;99.90;;;;;;5088334;28;20020;-53
2023/01/17 10:14:06;;;;;;;3.63;1.83;;;3.80;99.90;;;;;;5086832;28;20085;-52
2023/01/17 10:16:37;;;;;;;6.70;1.92;;;4.00;99.90;;;;;;5069483;28;20028;-53
2023/01/17 10:19:08;;;;;;;6.10;1.55;;;4.10;99.90;;;;;;5086522;28;20052;-52
2023/01/17 10:21:40;;;;;;;6.53;2.03;;;4.10;99.90;;;;;;5087990;28;20409;-51
2023/01/17 10:24:23;;;;;;;15.48;2.55;;;4.10;99.90;;;;;;5087826;28;20515;-50
2023/01/17 10:26:55;;;;;;;9.50;2.55;;;4.10;99.90;;;;;;5086307;28;20027;-54
2023/01/17 10:29:22;;;;;;;6.70;1.92;;;4.10;99.90;;;;;;5086850;28;20302;-52
2023/01/17 10:31:54;;;;;;;11.32;2.13;;;4.30;99.90;;;;;;5087641;28;20036;-52
2023/01/17 10:34:37;;;;;;;8.52;2.17;;;4.40;99.90;;;;;;5089192;28;20020;-52
2023/01/17 10:37:26;;;;;;;5.18;1.58;;;4.50;99.90;;;;;;5089752;28;20054;-52
2023/01/17 10:39:54;;;;;;;3.85;1.65;;;5.30;99.90;;;;;;5089428;28;20009;-50
2023/01/17 10:42:22;;;;;;;5.15;1.20;;;6.80;99.90;;;;;;5089143;28;20463;-54
2023/01/17 10:44:57;;;;;;;3.25;1.48;;;8.00;99.90;;;;;;5088693;28;20024;-54
2023/01/17 10:47:24;;;;;;;4.95;1.15;;;9.00;99.90;;;;;;5087332;28;20024;-52
2023/01/17 10:49:58;;;;;;;8.85;1.50;;;9.50;99.90;;;;;;5089174;28;20016;-52
2023/01/17 10:53:07;;;;;;;2.30;1.20;;;9.70;99.70;;;;;;5089230;28;20111;-55
2023/01/17 10:55:50;;;;;;;9.23;2.05;;;9.80;99.90;;;;;;5085777;28;20036;-51
2023/01/17 10:58:16;;;;;;;3.33;1.40;;;10.60;98.30;;;;;;5088406;28;20081;-52
2023/01/17 11:00:56;;;;;;;7.70;1.45;;;11.80;95.50;;;;;;5089014;28;20028;-54
2023/01/17 11:03:23;;;;;;;5.07;1.38;;;12.00;92.60;;;;;;5088897;28;20048;-53
2023/01/17 11:06:18;;;;;;;4.13;1.77;;;12.00;94.40;;;;;;5088563;28;20032;-51
2023/01/17 11:09:04;;;;;;;7.55;1.65;;;11.10;94.00;;;;;;5088692;28;20061;-51
2023/01/17 11:11:32;;;;;;;5.90;1.55;;;11.80;93.00;;;;;;5088450;28;20081;-51
2023/01/17 11:14:03;;;;;;;3.50;1.55;;;11.70;93.30;;;;;;5088155;28;20500;-53
2023/01/17 11:16:32;;;;;;;6.32;1.30;;;11.60;93.20;;;;;;5085183;28;20036;-51
2023/01/17 11:19:27;;;;;;;4.43;1.20;;;11.10;92.40;;;;;;5087583;28;20024;-53
2023/01/17 11:22:00;;;;;;;6.43;1.45;;;9.70;94.80;;;;;;5086664;28;20291;-52
2023/01/17 11:24:47;;;;;;;3.35;1.40;;;8.80;97.00;;;;;;5087735;28;20016;-53
2023/01/17 11:27:26;;;;;;;7.40;2.08;;;8.50;97.20;;;;;;5086488;28;20038;-54
2023/01/17 11:30:15;;;;;;;7.40;1.50;;;7.60;98.20;;;;;;5088549;28;20024;-52
2023/01/17 11:32:51;;;;;;;8.18;2.40;;;7.60;99.90;;;;;;5087954;28;20031;-53
2023/01/17 11:35:20;;;;;;;6.05;1.58;;;8.10;99.50;;;;;;5087272;28;20027;-51
2023/01/17 11:37:56;;;;;;;4.65;1.55;;;8.50;99.90;;;;;;5088180;28;20046;-53
2023/01/17 11:40:41;;;;;;;7.85;1.92;;;9.50;98.40;;;;;;5088099;28;20020;-53
2023/01/17 11:43:22;;;;;;;3.47;1.40;;;9.90;95.50;;;;;;5088034;28;20098;-53
2023/01/17 11:46:02;;;;;;;4.95;1.35;;;10.70;94.80;;;;;;5087446;28;20020;-53
2023/01/17 11:48:34;;;;;;;2.90;1.40;;;9.60;94.50;;;;;;5087787;28;20024;-53
2023/01/17 11:51:01;;;;;;;6.25;1.58;;;9.50;95.40;;;;;;5087385;28;20123;-53
2023/01/17 11:53:28;;;;;;;3.95;1.52;;;8.50;96.30;;;;;;5086473;28;20059;-55
2023/01/17 11:56:10;;;;;;;8.65;1.60;;;8.10;97.30;;;;;;5085517;28;20032;-52
2023/01/17 11:58:46;;;;;;;4.57;1.80;;;7.50;99.90;;;;;;5086603;28;20073;-53
2023/01/17 12:01:27;;;;;;;8.45;1.58;;;7.90;99.20;;;;;;5085520;28;20052;-52
2023/01/17 12:04:18;;;;;;;6.95;2.00;;;7.80;98.90;;;;;;5087726;28;20073;-52
2023/01/17 12:06:48;;;;;;;5.45;1.77;;;7.90;99.10;;;;;;5087098;28;20040;-52
2023/01/17 12:09:34;;;;;;;8.80;2.10;;;8.70;97.70;;;;;;5088714;28;20056;-52
2023/01/17 12:15:07;;;;;;;6.28;2.03;;;8.30;97.00;;;;;;5087585;28;20031;-52
2023/01/17 12:17:33;;;;;;;6.80;2.22;;;7.50;98.20;;;;;;5087023;28;20024;-53
2023/01/17 12:20:04;;;;;;;3.20;1.25;;;8.00;97.90;;;;;;5088786;28;20084;-52
2023/01/17 12:23:01;;;;;;;7.53;1.92;;;7.70;98.10;;;;;;5088791;28;20034;-52
2023/01/17 12:25:46;;;;;;;8.63;2.55;;;7.30;98.40;;;;;;5086739;28;20028;-50
2023/01/17 12:28:23;;;;;;;7.97;1.95;;;6.70;98.70;;;;;;5088787;28;20194;-54
2023/01/17 12:30:58;;;;;;;6.63;1.60;;;6.10;99.90;;;;;;5088355;28;20480;-53
2023/01/17 12:33:42;;;;;;;8.07;1.52;;;5.80;99.90;;;;;;5087954;28;20425;-52
2023/01/17 12:36:16;;;;;;;8.38;1.58;;;5.90;99.90;;;;;;5087842;28;20020;-54
2023/01/17 12:38:44;;;;;;;6.95;1.30;;;6.00;99.90;;;;;;5088306;28;20020;-53
2023/01/17 12:41:25;;;;;;;4.43;1.50;;;6.00;99.90;;;;;;5090256;28;20383;-53
2023/01/17 12:43:55;;;;;;;;;;;6.00;99.90;;;;;;5092856;28;20019;-52
2023/01/17 12:46:44;;;;;;;5.60;2.00;;;5.90;99.90;;;;;;5090642;28;19904;-52
2023/01/17 12:49:28;;;;;;;10.50;1.77;;;5.80;99.90;;;;;;5091504;28;20086;-52
2023/01/17 12:52:06;;;;;;;4.68;1.70;;;5.70;99.90;;;;;;5092185;28;20113;-52
2023/01/17 12:54:44;;;;;;;8.10;2.28;;;5.70;99.90;;;;;;5091855;28;20038;-53
2023/01/17 12:57:42;;;;;;;2.70;1.05;;;5.60;99.90;;;;;;5092258;28;20026;-52
2023/01/17 13:00:12;;;;;;;4.57;1.50;;;5.60;99.90;;;;;;5091707;28;20073;-52
2023/01/17 13:03:12;;;;;;;5.30;2.05;;;5.40;99.90;;;;;;5083983;28;20090;-51
2023/01/17 13:05:47;;;;;;;4.88;1.38;;;5.20;99.90;;;;;;5091677;28;20028;-49
2023/01/17 13:08:22;;;;;;;4.28;1.70;;;5.10;99.90;;;;;;5090834;28;20023;-50
2023/01/17 13:11:03;;;;;;;5.78;1.30;;;5.10;99.90;;;;;;5091850;28;20521;-50
2023/01/17 13:13:30;;;;;;;4.82;1.90;;;5.00;99.90;;;;;;5090327;28;20483;-52
2023/01/17 13:16:04;;;;;;;6.03;2.42;;;5.10;99.90;;;;;;5089973;28;20436;-53
2023/01/17 13:18:32;;;;;;;4.43;1.80;;;5.10;99.90;;;;;;5091336;28;20032;-54
2023/01/17 13:21:26;;;;;;;6.00;1.83;;;5.20;99.90;;;;;;5091324;28;20077;-51
2023/01/17 13:23:58;;;;;;;6.68;1.80;;;5.20;99.90;;;;;;5091432;28;20566;-51
2023/01/17 13:26:53;;;;;;;5.13;1.20;;;5.20;99.90;;;;;;5091053;28;20020;-50
2023/01/17 13:29:41;;;;;;;1.80;1.23;;;5.20;99.90;;;;;;5091409;28;20027;-52
2023/01/17 13:32:43;;;;;;;6.47;1.67;;;5.10;99.90;;;;;;5091647;28;20020;-50
2023/01/17 13:35:34;;;;;;;6.60;1.40;;;5.00;99.90;;;;;;5089816;28;20020;-53
2023/01/17 13:38:23;;;;;;;5.93;1.52;;;4.90;99.90;;;;;;5086344;28;20048;-52
2023/01/17 13:41:16;;;;;;;6.13;1.75;;;4.90;99.90;;;;;;5091323;28;20103;-54
2023/01/17 13:44:30;;;;;;;5.15;2.00;;;4.90;99.90;;;;;;5089966;28;20364;-53
2023/01/17 13:46:50;;;;;;;5.47;1.60;;;5.00;99.90;;;;;;5086390;28;20518;-52
2023/01/17 13:49:35;;;;;;;7.55;2.38;;;5.00;99.90;;;;;;5089467;28;20024;-51
2023/01/17 13:52:04;;;;;;;7.25;1.55;;;5.00;99.90;;;;;;5090247;28;20012;-51
2023/01/17 13:54:31;;;;;;;6.18;1.20;;;5.00;99.90;;;;;;5090930;28;20032;-52
2023/01/17 13:57:21;;;;;;;6.75;1.55;;;5.00;99.90;;;;;;5090716;28;20342;-50
2023/01/17 13:59:47;;;;;;;4.60;1.65;;;4.90;99.90;;;;;;5080993;28;20071;-52
2023/01/17 14:02:30;;;;;;;5.47;1.50;;;4.90;99.90;;;;;;5090099;28;20075;-53
2023/01/17 14:05:40;;;;;;;5.13;1.40;;;4.80;99.90;;;;;;5089340;28;20525;-51
2023/01/17 14:08:13;;;;;;;4.82;1.23;;;4.80;99.90;;;;;;5090778;28;20070;-53
2023/01/17 14:10:39;;;;;;;5.28;1.65;;;4.80;99.90;;;;;;5070969;28;20448;-51
2023/01/17 14:13:24;;;;;;;7.90;2.17;;;4.70;99.90;;;;;;5070877;28;20063;-51
2023/01/17 14:15:50;;;;;;;5.88;1.83;;;4.60;99.90;;;;;;5080124;28;20039;-52
2023/01/17 14:18:32;;;;;;;4.22;1.50;;;4.50;99.90;;;;;;5089542;28;20024;-50
2023/01/17 14:21:17;;;;;;;5.68;1.60;;;4.50;99.90;;;;;;5084545;28;20020;-51
2023/01/17 14:24:11;;;;;;;9.98;1.60;;;4.50;99.90;;;;;;5090231;28;20027;-53
2023/01/17 14:26:45;;;;;;;4.95;1.50;;;4.50;99.90;;;;;;5082090;28;20028;-52
2023/01/17 14:29:39;;;;;;;2.90;1.45;;;4.50;99.90;;;;;;5087403;28;20306;-53
2023/01/17 14:32:10;;;;;;;4.47;1.40;;;4.40;99.90;;;;;;5089262;28;20024;-52
2023/01/17 14:34:35;;;;;;;9.55;1.70;;;4.30;99.90;;;;;;5089409;28;20020;-51
2023/01/17 14:37:52;;;;;;;2.30;1.30;;;4.20;99.90;;;;;;5090462;28;20024;-53
2023/01/17 14:40:25;;;;;;;7.03;1.60;;;4.20;99.90;;;;;;5087921;28;20032;-53
2023/01/17 14:43:14;;;;;;;5.63;1.80;;;4.20;99.90;;;;;;5086670;28;20016;-53
2023/01/17 14:45:41;;;;;;;7.55;1.77;;;4.20;99.90;;;;;;5088310;28;20051;-52
2023/01/17 14:48:20;;;;;;;5.30;1.63;;;4.20;99.90;;;;;;5087775;28;20031;-52